Time;durP1;ratioP1;P1;durP2;ratioP2;P2;SDS_P1;SDS_P2;PMS_P1;PMS_P2;Temp;Humidity;BMP_temperature;BMP_pressure;BME280_temperature;BME280_humidity;BME280_pressure;Samples;Min_cycle;Max_cycle;Signal;HPM_P1;HPM_P2
2023/03/06 00:01:19;;;;;;;11.27;4.83;;;3.00;91.10;;;1.13;68.73;99529.81;10357415;28;96449;-89
2023/03/06 00:06:22;;;;;;;6.33;3.93;;;3.00;91.00;;;1.13;68.67;99526.38;10320945;28;96489;-89
2023/03/06 00:11:25;;;;;;;9.30;4.93;;;3.00;91.10;;;1.12;68.37;99532.56;10289659;28;96755;-90
2023/03/06 00:16:28;;;;;;;9.60;4.50;;;3.00;91.10;;;1.12;68.54;99524.72;10333249;28;98683;-89
2023/03/06 00:21:31;;;;;;;9.10;4.97;;;3.00;91.10;;;1.11;68.45;99512.59;10320413;28;96617;-89
2023/03/06 00:26:35;;;;;;;10.93;5.67;;;3.00;91.10;;;1.10;68.45;99513.56;10334295;28;97543;-89
2023/03/06 00:31:38;;;;;;;8.20;4.17;;;3.00;91.10;;;1.06;68.42;99502.50;10325271;28;96458;-90
2023/03/06 00:36:41;;;;;;;7.00;3.50;;;2.90;91.00;;;1.01;68.34;99500.22;10336994;28;96507;-89
2023/03/06 00:41:44;;;;;;;9.20;5.30;;;2.90;90.90;;;0.99;68.10;99507.38;10338274;28;96596;-89
2023/03/06 00:46:48;;;;;;;7.97;4.10;;;2.90;91.00;;;0.97;68.66;99501.47;10329690;28;96922;-89
2023/03/06 00:51:52;;;;;;;9.60;5.00;;;2.90;91.00;;;0.97;68.54;99504.06;10335181;28;96598;-89
2023/03/06 00:56:54;;;;;;;8.87;4.70;;;2.90;91.10;;;0.99;68.76;99503.94;10336809;28;96729;-90
2023/03/06 01:01:58;;;;;;;7.03;4.40;;;2.80;91.10;;;1.02;68.42;99498.44;10352314;28;96517;-90
2023/03/06 01:07:01;;;;;;;8.63;4.30;;;2.80;91.10;;;1.07;68.47;99491.06;10318732;28;96763;-89
2023/03/06 01:12:05;;;;;;;9.17;4.60;;;2.90;91.20;;;1.09;68.38;99476.09;10319035;28;96561;-90
2023/03/06 01:17:07;;;;;;;6.67;3.97;;;2.90;91.20;;;1.10;68.15;99476.91;10352297;28;96595;-89
2023/03/06 01:22:10;;;;;;;8.67;4.13;;;2.90;91.10;;;1.12;68.19;99475.81;10333413;28;96617;-89
2023/03/06 01:27:13;;;;;;;6.20;4.17;;;3.00;91.10;;;1.13;68.12;99474.03;10300289;28;96845;-90
2023/03/06 01:32:16;;;;;;;9.70;4.47;;;3.00;91.10;;;1.14;68.29;99465.22;10300112;28;97523;-90
2023/03/06 01:37:20;;;;;;;11.17;5.37;;;3.00;91.00;;;1.16;68.19;99464.16;10326031;28;96838;-89
2023/03/06 01:42:23;;;;;;;9.00;4.77;;;3.00;91.00;;;1.18;68.10;99469.25;10311813;28;96468;-92
2023/03/06 01:47:27;;;;;;;12.23;4.47;;;3.00;91.00;;;1.18;68.44;99462.22;10312850;28;96637;-92
2023/03/06 01:52:44;;;;;;;6.80;4.10;;;3.00;91.30;;;1.21;67.90;99463.78;10323880;28;97311;-93
2023/03/06 01:57:53;;;;;;;9.63;4.67;;;3.10;91.00;;;1.23;67.76;99467.94;10328952;28;96817;-91
2023/03/06 02:03:05;;;;;;;10.33;4.03;;;3.10;91.00;;;1.26;67.69;99474.69;10324557;28;96790;-91
2023/03/06 02:08:12;;;;;;;9.03;4.37;;;3.10;91.00;;;1.25;67.63;99466.00;10330445;28;98501;-92
2023/03/06 02:13:15;;;;;;;9.60;4.10;;;3.10;91.00;;;1.26;67.35;99465.06;10326662;28;96543;-92
2023/03/06 02:18:17;;;;;;;8.23;4.37;;;3.10;91.00;;;1.29;67.66;99461.34;10324219;28;96821;-92
2023/03/06 02:24:10;;;;;;;8.57;3.93;;;3.10;91.00;;;1.30;67.46;99458.59;10342841;28;98168;-92
2023/03/06 02:29:22;;;;;;;7.80;3.73;;;3.10;91.00;;;1.29;67.65;99459.56;10333242;28;97480;-92
2023/03/06 02:34:25;;;;;;;7.97;4.50;;;3.20;91.00;;;1.29;67.80;99456.13;10320562;28;96614;-92
2023/03/06 02:39:32;;;;;;;7.63;3.87;;;3.20;91.00;;;1.28;67.81;99460.53;10330786;28;97210;-92
2023/03/06 02:44:36;;;;;;;9.03;4.23;;;3.10;91.00;;;1.29;68.23;99458.75;10338883;28;98584;-92
2023/03/06 02:49:39;;;;;;;75.37;24.10;;;3.10;91.00;;;1.30;67.72;99461.22;10352229;28;98702;-93
2023/03/06 02:54:42;;;;;;;59.97;24.30;;;3.20;91.10;;;1.31;67.93;99459.44;10340668;28;96588;-91
2023/03/06 02:59:45;;;;;;;59.07;28.03;;;3.20;91.10;;;1.32;68.05;99450.66;10357918;28;96593;-90
2023/03/06 03:04:48;;;;;;;34.07;16.90;;;3.20;91.10;;;1.34;67.74;99462.63;10288651;28;97731;-90
2023/03/06 03:09:51;;;;;;;16.97;7.60;;;3.10;91.00;;;1.34;67.70;99467.88;10297432;28;97152;-90
2023/03/06 03:14:55;;;;;;;9.37;5.80;;;3.20;91.10;;;1.40;67.58;99455.25;10357034;28;96403;-90
2023/03/06 03:19:58;;;;;;;9.13;4.47;;;3.20;91.10;;;1.41;67.73;99457.72;10324222;28;96679;-89
2023/03/06 03:25:02;;;;;;;8.63;3.93;;;3.20;91.00;;;1.44;67.34;99449.63;10330511;28;96724;-89
2023/03/06 03:30:07;;;;;;;11.93;4.80;;;3.20;91.00;;;1.46;67.24;99452.94;10339802;28;96720;-88
2023/03/06 03:35:10;;;;;;;10.87;4.50;;;3.30;91.00;;;1.48;67.16;99437.91;10349963;28;96583;-88
2023/03/06 03:40:14;;;;;;;7.33;4.17;;;3.30;91.00;;;1.49;67.37;99443.97;10328666;28;96580;-88
2023/03/06 03:45:18;;;;;;;8.53;4.43;;;3.30;90.90;;;1.51;67.26;99436.84;10343786;28;96698;-89
2023/03/06 03:50:21;;;;;;;8.97;4.30;;;3.30;90.90;;;1.53;66.96;99434.91;10338573;28;96450;-89
2023/03/06 03:55:24;;;;;;;6.07;3.70;;;3.30;90.90;;;1.54;66.96;99428.72;10342358;28;96610;-88
2023/03/06 04:00:27;;;;;;;7.80;4.03;;;3.30;90.90;;;1.54;66.88;99428.72;10306211;28;97135;-89
2023/03/06 04:05:32;;;;;;;7.33;4.17;;;3.30;90.90;;;1.54;66.79;99437.41;10292166;28;96628;-88
2023/03/06 04:10:37;;;;;;;10.93;4.77;;;3.30;90.90;;;1.53;66.90;99440.16;10312208;28;98486;-88
2023/03/06 04:15:40;;;;;;;7.27;4.60;;;3.30;91.00;;;1.52;67.41;99444.56;10335652;28;98369;-88
2023/03/06 04:20:47;;;;;;;11.57;5.27;;;3.30;91.10;;;1.52;67.97;99444.56;10321387;28;96652;-87
2023/03/06 04:25:50;;;;;;;12.83;5.73;;;3.30;91.20;;;1.50;67.99;99446.50;10331512;28;96532;-88
2023/03/06 04:30:53;;;;;;;11.50;5.73;;;3.30;91.40;;;1.47;68.39;99436.25;10298977;28;96774;-89
2023/03/06 04:35:56;;;;;;;10.27;4.90;;;3.20;91.50;;;1.44;68.64;99444.38;10318642;28;97068;-89
2023/03/06 04:40:59;;;;;;;10.60;5.33;;;3.20;91.70;;;1.41;69.05;99441.19;10329224;28;97525;-89
2023/03/06 04:46:02;;;;;;;12.23;5.50;;;3.20;91.80;;;1.36;69.88;99436.31;10342201;28;96588;-90
2023/03/06 04:51:05;;;;;;;10.93;5.33;;;3.20;92.00;;;1.31;70.47;99447.16;10320025;28;96563;-92
2023/03/06 04:56:09;;;;;;;14.83;6.90;;;3.10;92.30;;;1.26;70.86;99444.13;10318558;28;97211;-92
2023/03/06 05:01:12;;;;;;;7.83;4.43;;;3.10;92.50;;;1.19;71.53;99440.34;10349882;28;96606;-89
2023/03/06 05:06:16;;;;;;;7.70;4.37;;;3.00;93.00;;;1.15;72.29;99443.34;10323611;28;96627;-92
2023/03/06 05:11:19;;;;;;;13.17;5.63;;;2.90;93.50;;;1.07;73.70;99446.56;10314356;28;98784;-89
2023/03/06 05:16:22;;;;;;;10.27;5.50;;;2.90;94.10;;;0.97;74.74;99445.69;10300149;28;97270;-85
2023/03/06 05:21:25;;;;;;;12.47;5.47;;;2.70;95.30;;;0.85;76.41;99441.47;10312617;28;97037;-84
2023/03/06 05:26:28;;;;;;;10.40;6.10;;;2.60;96.20;;;0.77;77.58;99445.50;10339377;28;96822;-84
2023/03/06 05:31:31;;;;;;;8.17;5.20;;;2.60;96.60;;;0.70;78.84;99446.94;10336787;28;96872;-84
2023/03/06 05:36:35;;;;;;;12.53;6.50;;;2.50;97.50;;;0.64;79.85;99450.06;10343054;28;96547;-84
2023/03/06 05:41:38;;;;;;;12.57;6.07;;;2.40;98.50;;;0.61;80.26;99455.56;10337416;28;96485;-83
2023/03/06 05:46:41;;;;;;;8.83;5.33;;;2.40;99.70;;;0.55;81.56;99445.59;10312410;28;96665;-83
2023/03/06 05:51:44;;;;;;;9.33;5.83;;;2.30;99.90;;;0.50;81.95;99445.94;10327502;28;97093;-83
2023/03/06 05:56:48;;;;;;;12.67;6.47;;;2.30;99.90;;;0.50;82.67;99445.13;10334913;28;96584;-83
2023/03/06 06:01:50;;;;;;;11.17;6.00;;;2.30;99.90;;;0.52;82.69;99449.25;10333254;28;96502;-82
2023/03/06 06:06:58;;;;;;;11.47;6.13;;;2.30;99.90;;;0.53;83.10;99445.69;10341753;28;96663;-82
2023/03/06 06:12:02;;;;;;;12.27;6.13;;;2.30;99.90;;;0.55;83.77;99449.97;10334052;28;96541;-82
2023/03/06 06:17:05;;;;;;;18.07;9.70;;;2.30;99.90;;;0.58;84.31;99455.78;10358754;28;96421;-83
2023/03/06 06:22:09;;;;;;;19.70;9.93;;;2.40;99.90;;;0.63;84.29;99458.03;10315864;28;96753;-83
2023/03/06 06:27:12;;;;;;;14.30;7.10;;;2.40;99.90;;;0.64;84.64;99457.91;10328451;28;96599;-82
2023/03/06 06:32:15;;;;;;;13.53;7.23;;;2.40;99.90;;;0.67;85.03;99462.06;10336251;28;96669;-83
2023/03/06 06:37:18;;;;;;;12.00;6.00;;;2.40;99.90;;;0.71;85.25;99461.69;10297056;28;98241;-81
2023/03/06 06:42:21;;;;;;;11.03;6.60;;;2.50;99.90;;;0.79;85.57;99455.84;10364869;28;96776;-81
2023/03/06 06:47:41;;;;;;;14.17;8.40;;;2.50;99.90;;;0.85;85.99;99465.81;10312399;28;96420;-81
2023/03/06 06:52:44;;;;;;;15.73;7.50;;;2.60;99.90;;;0.92;86.27;99459.13;10339387;28;97146;-82
2023/03/06 06:57:47;;;;;;;44.23;22.50;;;2.70;99.90;;;1.00;86.20;99466.34;10354516;28;96524;-84
2023/03/06 07:02:50;;;;;;;28.17;14.57;;;2.80;99.90;;;1.10;86.66;99458.59;10330607;28;96403;-82
2023/03/06 07:07:53;;;;;;;18.10;9.53;;;2.90;99.90;;;1.16;86.69;99469.38;10318380;28;97412;-82
2023/03/06 07:12:56;;;;;;;13.90;7.33;;;2.90;99.90;;;1.18;86.27;99470.09;10309002;28;98311;-83
2023/03/06 07:18:00;;;;;;;14.73;7.53;;;3.00;99.90;;;1.20;86.50;99481.28;10329947;28;96550;-83
2023/03/06 07:23:07;;;;;;;14.43;7.17;;;3.00;99.90;;;1.23;85.93;99477.56;10338836;28;96519;-83
2023/03/06 07:28:10;;;;;;;10.27;6.07;;;3.00;99.90;;;1.34;86.43;99474.91;10341372;28;96563;-83
2023/03/06 07:33:13;;;;;;;26.90;11.40;;;3.00;99.90;;;1.50;86.57;99490.16;10320849;28;96509;-83
2023/03/06 07:38:16;;;;;;;24.47;11.73;;;3.20;99.90;;;1.66;86.49;99495.78;10318948;28;96419;-83
2023/03/06 07:43:20;;;;;;;23.17;11.80;;;3.40;99.90;;;1.80;86.84;99497.22;10338518;28;96456;-83
2023/03/06 07:48:23;;;;;;;17.73;9.00;;;3.50;99.90;;;1.88;86.53;99490.41;10320470;28;96854;-83
2023/03/06 07:53:27;;;;;;;26.17;14.77;;;3.60;99.90;;;1.98;86.50;99500.09;10324938;28;96684;-83
2023/03/06 07:58:30;;;;;;;21.33;10.67;;;3.70;99.90;;;2.04;85.86;99505.66;10323920;28;96635;-82
2023/03/06 08:03:33;;;;;;;17.93;9.80;;;3.80;99.90;;;2.08;85.72;99503.59;10331361;28;97822;-83
2023/03/06 08:08:39;;;;;;;13.87;8.40;;;3.80;99.90;;;2.13;85.84;99488.31;10330471;28;97381;-82
2023/03/06 08:13:42;;;;;;;17.90;10.17;;;3.90;99.90;;;2.18;86.13;99499.25;10315328;28;96563;-83
2023/03/06 08:18:45;;;;;;;14.13;9.17;;;3.90;99.90;;;2.25;85.83;99497.75;10296139;28;98478;-82
2023/03/06 08:23:49;;;;;;;19.83;10.10;;;4.00;99.90;;;2.29;85.84;99499.16;10321882;28;96567;-83
2023/03/06 08:28:55;;;;;;;17.27;9.13;;;4.00;99.90;;;2.34;85.77;99509.22;10319769;28;96412;-83
2023/03/06 08:34:04;;;;;;;18.60;9.97;;;4.10;99.90;;;2.30;85.84;99492.94;10337823;28;97608;-83
2023/03/06 08:39:07;;;;;;;16.30;9.20;;;4.10;99.90;;;2.36;85.81;99500.28;10316263;28;97932;-83
2023/03/06 08:44:11;;;;;;;15.33;8.93;;;4.10;99.90;;;2.39;85.70;99494.75;10337427;28;96460;-83
2023/03/06 08:49:14;;;;;;;20.67;12.20;;;4.10;99.90;;;2.39;85.47;99500.00;10303398;28;96520;-83
2023/03/06 08:54:17;;;;;;;17.13;9.80;;;4.20;99.90;;;2.45;85.68;99505.69;10320001;28;96621;-82
2023/03/06 08:59:20;;;;;;;19.43;11.10;;;4.20;99.90;;;2.49;86.04;99500.03;10318530;28;96426;-83
2023/03/06 09:04:23;;;;;;;15.50;9.40;;;4.30;99.90;;;2.61;85.99;99504.22;10337478;28;96554;-83
2023/03/06 09:09:26;;;;;;;14.37;8.67;;;4.40;99.90;;;2.74;85.90;99490.84;10319713;28;96521;-83
2023/03/06 09:14:30;;;;;;;19.10;9.83;;;4.40;99.90;;;2.93;86.48;99483.00;10320659;28;96540;-83
2023/03/06 09:19:33;;;;;;;18.00;9.03;;;4.60;99.90;;;3.21;86.26;99475.28;10311512;28;97475;-83
2023/03/06 09:24:36;;;;;;;16.67;8.80;;;4.90;99.90;;;3.62;85.38;99470.69;10318539;28;96965;-83
2023/03/06 09:29:39;;;;;;;14.73;8.93;;;5.20;99.90;;;4.05;83.77;99464.91;10334111;28;96663;-84
2023/03/06 09:34:42;;;;;;;20.17;11.10;;;5.50;99.90;;;4.28;82.77;99454.84;10336337;28;96826;-83
2023/03/06 09:39:45;;;;;;;16.70;10.27;;;5.70;99.90;;;4.26;80.71;99451.53;10334102;28;96508;-84
2023/03/06 09:45:10;;;;;;;17.03;10.43;;;5.90;99.90;;;4.42;80.79;99453.53;10333795;28;96614;-83
2023/03/06 09:50:55;;;;;;;18.70;10.90;;;6.00;99.90;;;4.65;79.87;99449.50;10318684;28;98321;-84
2023/03/06 09:56:09;;;;;;;15.23;10.07;;;6.20;99.90;;;4.91;79.45;99452.25;10335993;28;97417;-82
2023/03/06 10:01:28;;;;;;;16.30;9.17;;;6.40;99.90;;;4.87;76.93;99447.44;10294844;28;96648;-82
2023/03/06 10:06:57;;;;;;;16.67;10.17;;;6.50;99.90;;;4.78;76.73;99449.16;10280288;28;96526;-84
2023/03/06 10:12:11;;;;;;;18.30;10.40;;;6.40;99.90;;;4.71;76.16;99441.03;10309682;28;96675;-82
2023/03/06 10:17:20;;;;;;;39.63;23.20;;;6.40;99.90;;;4.84;76.91;99445.91;10318988;28;98720;-82
2023/03/06 10:22:43;;;;;;;17.13;10.70;;;6.50;99.90;;;4.93;76.18;99445.03;10278053;28;96569;-82
2023/03/06 10:28:22;;;;;;;15.60;9.93;;;6.60;99.90;;;5.01;75.72;99437.22;10324748;28;96867;-82
2023/03/06 10:33:46;;;;;;;15.60;10.57;;;6.70;99.90;;;5.06;75.11;99429.69;10331596;28;98291;-84
2023/03/06 10:38:49;;;;;;;17.73;11.53;;;6.80;99.90;;;5.07;74.07;99425.25;10341226;28;97332;-84
2023/03/06 10:43:58;;;;;;;13.97;8.60;;;6.80;99.90;;;5.05;73.79;99416.69;10307085;28;96492;-84
2023/03/06 10:49:23;;;;;;;14.03;9.17;;;6.80;99.90;;;5.07;73.73;99406.81;10339797;28;96443;-83
2023/03/06 10:54:33;;;;;;;11.67;8.00;;;6.80;99.90;;;5.12;73.93;99394.00;10338267;28;96481;-84
2023/03/06 11:00:01;;;;;;;15.30;8.97;;;6.80;99.90;;;5.07;73.42;99386.56;10351263;28;96533;-82
2023/03/06 11:05:25;;;;;;;26.37;12.30;;;6.80;99.90;;;4.98;72.18;99384.84;10321674;28;96511;-83
2023/03/06 11:10:30;;;;;;;16.60;9.33;;;6.70;99.40;;;4.84;72.07;99372.22;10266650;28;96513;-82
2023/03/06 11:15:34;;;;;;;15.63;8.50;;;6.60;99.10;;;4.91;71.81;99360.09;10335388;28;97306;-83
2023/03/06 11:20:49;;;;;;;13.23;8.07;;;6.60;99.10;;;4.79;71.99;99345.50;10322495;28;96576;-83
2023/03/06 11:26:03;;;;;;;11.77;7.50;;;6.50;98.80;;;4.94;72.38;99345.81;10354818;28;96581;-83
2023/03/06 11:31:19;;;;;;;16.93;9.73;;;6.60;99.00;;;4.98;72.08;99334.84;10324350;28;96501;-82
2023/03/06 11:37:02;;;;;;;18.20;9.87;;;6.70;98.90;;;5.04;71.89;99313.16;10322041;28;96714;-83
2023/03/06 11:42:27;;;;;;;50.33;32.33;;;6.70;98.70;;;5.04;72.54;99300.00;10305388;28;96475;-83
2023/03/06 11:47:42;;;;;;;19.63;11.13;;;6.70;98.90;;;4.92;73.17;99295.09;10286970;28;96647;-84
2023/03/06 11:53:09;;;;;;;15.10;9.77;;;6.60;98.90;;;4.89;73.75;99288.34;10315300;28;96999;-82
2023/03/06 11:58:46;;;;;;;42.03;16.73;;;6.60;99.20;;;4.88;73.44;99276.16;10321232;28;96493;-84
2023/03/06 12:04:02;;;;;;;27.63;12.90;;;6.60;99.30;;;4.87;73.13;99268.44;10324449;28;96437;-83
2023/03/06 12:09:11;;;;;;;38.07;14.47;;;6.60;99.10;;;4.92;73.75;99253.84;10324120;28;96493;-83
2023/03/06 12:14:56;;;;;;;25.93;11.93;;;6.60;99.30;;;4.98;73.37;99260.28;10337298;28;97437;-84
2023/03/06 12:20:26;;;;;;;28.07;12.47;;;6.70;99.20;;;4.96;73.07;99254.31;10336491;28;98203;-84
2023/03/06 12:25:38;;;;;;;118.43;27.27;;;6.60;99.00;;;4.83;73.04;99249.47;10338758;28;96417;-84
2023/03/06 12:31:35;;;;;;;34.40;13.43;;;6.60;99.00;;;4.72;73.00;99247.09;10321199;28;96584;-84
2023/03/06 12:37:02;;;;;;;21.50;10.30;;;6.40;99.00;;;4.62;73.34;99243.72;10320583;28;96515;-83
2023/03/06 12:42:08;;;;;;;27.53;12.73;;;6.30;99.00;;;4.54;73.92;99242.69;10335025;28;96538;-83
2023/03/06 12:47:27;;;;;;;23.23;12.07;;;6.20;99.10;;;4.45;74.47;99234.91;10319047;28;97156;-83
2023/03/06 12:52:33;;;;;;;25.83;14.10;;;6.10;99.50;;;4.39;74.69;99231.06;10302174;28;96692;-83
2023/03/06 12:57:35;;;;;;;37.70;21.80;;;6.00;99.80;;;4.42;74.92;99227.28;10351421;28;96742;-83
2023/03/06 13:03:38;;;;;;;27.87;15.13;;;6.00;99.90;;;4.49;75.15;99220.44;10335362;28;96381;-84
2023/03/06 13:09:03;;;;;;;40.33;19.57;;;6.10;99.90;;;4.45;75.03;99219.13;10306743;28;97766;-83
2023/03/06 13:14:32;;;;;;;28.13;13.03;;;6.10;99.90;;;4.49;75.22;99213.38;10319906;28;96422;-83
2023/03/06 13:19:37;;;;;;;98.90;32.30;;;6.10;99.90;;;4.51;75.19;99213.25;10312396;28;96743;-83
2023/03/06 13:24:42;;;;;;;40.30;17.63;;;6.10;99.90;;;4.63;75.48;99208.56;10319524;28;96589;-84
2023/03/06 13:29:50;;;;;;;38.13;16.10;;;6.20;99.90;;;4.72;74.43;99204.97;10319020;28;96490;-84
2023/03/06 13:34:54;;;;;;;49.57;21.17;;;6.40;99.90;;;4.82;74.77;99190.75;10320634;28;96435;-84
2023/03/06 13:40:00;;;;;;;64.00;25.63;;;6.40;99.90;;;4.90;74.18;99197.84;10294287;28;96666;-85
2023/03/06 13:45:16;;;;;;;48.17;19.83;;;6.50;99.90;;;4.90;73.50;99187.31;10280319;28;96805;-84
2023/03/06 13:50:47;;;;;;;22.67;11.57;;;6.60;99.70;;;4.90;73.74;99181.25;10341801;28;96514;-84
2023/03/06 13:56:05;;;;;;;33.50;15.63;;;6.60;99.80;;;4.94;73.90;99193.13;10321021;28;97681;-85
2023/03/06 14:01:29;;;;;;;23.97;13.63;;;6.60;99.70;;;4.88;73.60;99184.03;10343281;28;96396;-84
2023/03/06 14:06:36;;;;;;;26.43;13.40;;;6.50;99.50;;;4.73;73.71;99180.31;10324320;28;96394;-84
2023/03/06 14:11:49;;;;;;;27.37;13.00;;;6.40;99.50;;;4.55;73.59;99167.19;10341898;28;97391;-84
2023/03/06 14:16:52;;;;;;;19.43;10.77;;;6.30;99.50;;;4.54;74.43;99161.13;10318959;28;96459;-84
2023/03/06 14:21:56;;;;;;;19.97;12.03;;;6.20;99.70;;;4.51;74.42;99166.72;10292203;28;96594;-84
2023/03/06 14:27:00;;;;;;;22.47;12.90;;;6.20;99.80;;;4.46;74.46;99163.72;10373750;28;97850;-84
2023/03/06 14:32:08;;;;;;;23.53;13.17;;;6.10;99.80;;;4.41;74.60;99160.72;10304280;28;96544;-84
2023/03/06 14:37:23;;;;;;;20.53;11.27;;;6.10;99.80;;;4.42;75.05;99146.56;10309044;28;96539;-85
2023/03/06 14:42:28;;;;;;;27.77;12.90;;;6.10;99.90;;;4.35;74.95;99152.59;10341484;28;96459;-84
2023/03/06 14:47:35;;;;;;;76.83;21.73;;;6.00;99.90;;;4.29;75.06;99141.72;10322712;28;96429;-84
2023/03/06 14:52:38;;;;;;;24.37;13.37;;;6.00;99.90;;;4.24;75.07;99140.53;10341018;28;96470;-84
2023/03/06 14:57:41;;;;;;;19.80;11.87;;;6.00;99.90;;;4.19;75.56;99132.25;10323308;28;96521;-84
2023/03/06 15:02:46;;;;;;;27.73;12.10;;;5.90;99.90;;;4.12;75.64;99128.59;10315505;28;97875;-84
2023/03/06 15:07:51;;;;;;;52.07;19.10;;;5.90;99.90;;;4.15;75.92;99138.81;10342576;28;98691;-86
2023/03/06 15:12:55;;;;;;;85.27;21.67;;;5.80;99.90;;;4.16;75.89;99137.84;10326214;28;96594;-87
2023/03/06 15:17:59;;;;;;;21.30;10.90;;;5.90;99.90;;;4.16;75.61;99136.03;10329018;28;98545;-85
2023/03/06 15:23:02;;;;;;;19.90;10.67;;;5.90;99.90;;;4.13;75.78;99127.63;10330681;28;97407;-91
2023/03/06 15:28:33;;;;;;;48.97;21.17;;;5.90;99.90;;;4.10;75.88;99125.31;10326389;28;96564;-91
2023/03/06 15:33:36;;;;;;;73.20;22.30;;;5.80;99.90;;;4.06;75.92;99119.50;10341704;28;96624;-88
2023/03/06 15:38:44;;;;;;;152.07;36.67;;;5.80;99.90;;;4.01;76.12;99130.47;10334400;28;98257;-93
2023/03/06 15:43:47;;;;;;;85.50;24.37;;;5.80;99.90;;;3.97;75.93;99128.34;10286493;28;97460;-90
2023/03/06 15:49:03;;;;;;;39.50;18.13;;;5.70;99.90;;;3.90;76.07;99119.38;10307739;28;97035;-92
2023/03/06 15:54:06;;;;;;;123.80;41.97;;;5.60;99.90;;;3.86;76.07;99124.13;10314623;28;97243;-88
2023/03/06 15:59:22;;;;;;;30.33;15.97;;;5.60;99.90;;;3.82;76.41;99133.28;10330980;28;97889;-83
2023/03/06 16:04:25;;;;;;;25.10;13.77;;;5.60;99.90;;;3.82;76.89;99127.19;10312319;28;96548;-85
2023/03/06 16:09:28;;;;;;;42.87;22.57;;;5.60;99.90;;;3.80;76.64;99139.69;10332798;28;96670;-85
2023/03/06 16:14:31;;;;;;;39.03;19.80;;;5.50;99.90;;;3.75;77.04;99137.50;10331683;28;96533;-85
2023/03/06 16:19:35;;;;;;;28.63;13.63;;;5.50;99.90;;;3.72;77.00;99136.00;10325261;28;98330;-84
2023/03/06 16:24:38;;;;;;;27.80;13.93;;;5.50;99.90;;;3.73;77.30;99129.75;10320985;28;98186;-84
2023/03/06 16:29:40;;;;;;;70.33;22.80;;;5.50;99.90;;;3.71;77.00;99115.09;10342961;28;96575;-85
2023/03/06 16:34:43;;;;;;;109.77;37.63;;;5.50;99.90;;;3.68;77.04;99120.69;10318606;28;96642;-85
2023/03/06 16:39:47;;;;;;;252.57;62.93;;;5.50;99.90;;;3.65;77.47;99141.97;10290394;28;96814;-85
2023/03/06 16:44:50;;;;;;;635.93;119.53;;;5.40;99.90;;;3.53;77.55;99135.28;10334094;28;96733;-84
2023/03/06 16:49:56;;;;;;;183.13;44.80;;;5.30;99.90;;;3.45;78.32;99136.03;10319595;28;96585;-85
2023/03/06 16:55:00;;;;;;;270.00;54.17;;;5.20;99.90;;;3.35;78.68;99143.97;10320247;28;96595;-85
2023/03/06 17:00:05;;;;;;;66.70;23.90;;;5.10;99.90;;;3.27;79.03;99141.28;10347123;28;96768;-85
2023/03/06 17:05:10;;;;;;;114.70;27.77;;;5.10;99.90;;;3.23;79.18;99134.66;10297804;28;97559;-85
2023/03/06 17:10:15;;;;;;;121.13;31.57;;;5.00;99.90;;;3.22;79.65;99139.06;10316746;28;96543;-86
2023/03/06 17:15:19;;;;;;;67.80;26.70;;;5.00;99.90;;;3.21;79.97;99140.06;10331053;28;98622;-86
2023/03/06 17:20:22;;;;;;;65.90;25.73;;;5.00;99.90;;;3.22;80.00;99135.63;10330730;28;96651;-86
2023/03/06 17:25:25;;;;;;;95.63;31.13;;;5.00;99.90;;;3.18;79.87;99134.28;10333737;28;99009;-86
2023/03/06 17:30:29;;;;;;;99.03;33.80;;;5.00;99.90;;;3.16;80.24;99133.59;10300835;28;98315;-89
2023/03/06 17:35:35;;;;;;;142.10;39.20;;;4.90;99.90;;;3.13;80.20;99129.47;10327261;28;96459;-88
2023/03/06 17:40:39;;;;;;;80.20;29.10;;;4.90;99.90;;;3.11;80.28;99123.53;10317478;28;97985;-86
2023/03/06 17:45:41;;;;;;;200.53;50.37;;;4.90;99.90;;;3.10;80.48;99121.06;10342102;28;97290;-87
2023/03/06 17:50:53;;;;;;;67.00;27.13;;;4.90;99.90;;;3.09;80.30;99124.66;10337716;28;96577;-86
2023/03/06 17:55:57;;;;;;;297.73;75.90;;;4.90;99.90;;;3.05;80.23;99123.28;10338961;28;96714;-87
2023/03/06 18:01:16;;;;;;;152.23;44.13;;;4.90;99.90;;;3.03;80.32;99130.47;10321248;28;98557;-87
2023/03/06 18:06:20;;;;;;;42.60;18.60;;;4.90;99.90;;;2.97;80.21;99142.38;10326571;28;96641;-87
2023/03/06 18:11:24;;;;;;;171.00;44.90;;;4.80;99.90;;;2.95;80.51;99132.03;10330232;28;96574;-87
2023/03/06 18:16:27;;;;;;;73.63;26.13;;;4.80;99.90;;;2.95;80.51;99145.16;10302764;28;98601;-87
2023/03/06 18:21:30;;;;;;;54.07;26.33;;;4.80;99.90;;;2.98;80.61;99143.22;10294328;28;98478;-87
2023/03/06 18:26:33;;;;;;;36.53;18.47;;;4.80;99.90;;;2.98;80.75;99145.84;10297993;28;97350;-87
2023/03/06 18:31:39;;;;;;;191.87;54.33;;;4.80;99.90;;;3.01;80.71;99116.69;10323908;28;96440;-87
2023/03/06 18:36:45;;;;;;;75.20;29.13;;;4.80;99.90;;;2.98;80.76;99132.72;10338252;28;98259;-87
2023/03/06 18:41:49;;;;;;;195.50;64.50;;;4.80;99.90;;;2.92;81.71;99118.38;10340184;28;96567;-87
2023/03/06 18:46:52;;;;;;;65.37;31.10;;;4.70;99.90;;;2.83;82.06;99124.50;10339692;28;96489;-88
2023/03/06 18:51:55;;;;;;;57.33;31.80;;;4.70;99.90;;;2.77;82.88;99104.91;10325099;28;98113;-88
2023/03/06 18:56:58;;;;;;;47.20;23.90;;;4.60;99.90;;;2.72;83.25;99108.94;10336635;28;98767;-88
2023/03/06 19:02:01;;;;;;;41.33;20.57;;;4.60;99.90;;;2.63;83.69;99103.56;10331486;28;96628;-87
2023/03/06 19:07:05;;;;;;;39.37;21.50;;;4.50;99.90;;;2.54;84.27;99114.94;10350724;28;97261;-87
2023/03/06 19:12:08;;;;;;;45.60;23.83;;;4.40;99.90;;;2.42;84.64;99124.78;10323262;28;96489;-88
2023/03/06 19:17:11;;;;;;;35.17;21.77;;;4.30;99.90;;;2.31;84.71;99118.88;10313997;28;96582;-87
2023/03/06 19:22:14;;;;;;;34.47;19.70;;;4.20;99.90;;;2.22;85.15;99124.94;10339529;28;98465;-87
2023/03/06 19:27:17;;;;;;;41.60;22.47;;;4.10;99.90;;;2.12;85.53;99119.72;10324896;28;97031;-88
2023/03/06 19:32:21;;;;;;;44.13;24.97;;;4.00;99.90;;;2.05;85.86;99116.03;10295193;28;96657;-87
2023/03/06 19:37:25;;;;;;;27.03;14.60;;;3.90;99.90;;;2.02;85.77;99108.44;10338198;28;96857;-87
2023/03/06 19:42:30;;;;;;;25.23;14.53;;;3.90;99.90;;;2.00;86.07;99092.84;10366164;28;96576;-87
2023/03/06 19:47:33;;;;;;;30.63;17.13;;;3.90;99.90;;;2.00;86.63;99099.91;10315251;28;98270;-87
2023/03/06 19:52:37;;;;;;;35.47;18.70;;;3.90;99.90;;;1.93;86.61;99098.81;10360039;28;96777;-87
2023/03/06 19:57:42;;;;;;;34.77;17.33;;;3.80;99.90;;;1.78;86.77;99107.06;10335395;28;96686;-88
2023/03/06 20:02:45;;;;;;;32.73;18.07;;;3.70;99.90;;;1.59;86.75;99096.59;10316416;28;96549;-86
2023/03/06 20:07:48;;;;;;;31.43;16.40;;;3.60;99.90;;;1.45;86.94;99095.22;10354522;28;99345;-86
2023/03/06 20:12:51;;;;;;;30.10;16.77;;;3.40;99.90;;;1.36;87.17;99108.28;10318567;28;98297;-86
2023/03/06 20:17:54;;;;;;;26.43;14.70;;;3.30;99.90;;;1.32;87.57;99111.19;10290756;28;96898;-86
2023/03/06 20:23:03;;;;;;;30.70;16.07;;;3.30;99.90;;;1.35;87.62;99110.09;10318744;28;98332;-87
2023/03/06 20:28:06;;;;;;;32.37;16.80;;;3.30;99.90;;;1.37;87.96;99113.38;10365084;28;98175;-87
2023/03/06 20:33:09;;;;;;;33.27;17.07;;;3.30;99.90;;;1.39;88.21;99126.34;10319671;28;97769;-86
2023/03/06 20:38:12;;;;;;;37.73;20.03;;;3.30;99.90;;;1.43;89.10;99130.34;10307320;28;96546;-88
2023/03/06 20:43:15;;;;;;;44.67;21.27;;;3.30;99.90;;;1.47;89.34;99135.19;10314297;28;96604;-87
2023/03/06 20:48:18;;;;;;;36.00;19.73;;;3.30;99.90;;;1.55;89.64;99100.44;10288240;28;96727;-87
2023/03/06 20:53:21;;;;;;;56.27;30.17;;;3.40;99.90;;;1.58;90.06;99102.81;10307313;28;97653;-87
2023/03/06 20:58:27;;;;;;;41.37;21.63;;;3.40;99.90;;;1.52;89.90;99096.31;10309296;28;97461;-84
2023/03/06 21:03:30;;;;;;;34.77;19.30;;;3.40;99.90;;;1.36;90.20;99100.44;10299924;28;96625;-85
2023/03/06 21:08:33;;;;;;;41.30;22.00;;;3.30;99.90;;;1.23;90.15;99119.00;10321601;28;97398;-84
2023/03/06 21:13:36;;;;;;;54.43;28.77;;;3.10;99.90;;;1.06;90.25;99103.00;10327545;28;97243;-84
2023/03/06 21:18:39;;;;;;;46.20;24.57;;;3.00;99.90;;;0.91;90.44;99111.38;10343441;28;98033;-83
2023/03/06 21:23:43;;;;;;;43.47;21.77;;;2.90;99.90;;;0.76;90.20;99116.94;10278795;28;98075;-85